sensor_id;sensor_type;location;lat;lon;timestamp;P1;P2;P0
45112;PMS5003;30873;53.908;27.576;2022-12-07T00:04:44;29.8;25.2;14.8
45112;PMS5003;30873;53.908;27.576;2022-12-07T00:09:13;32.3;27.8;15.7
45112;PMS5003;30873;53.908;27.576;2022-12-07T00:14:20;31;25.6;15.6
45112;PMS5003;30873;53.908;27.576;2022-12-07T00:19:32;31.2;25.5;14.9
45112;PMS5003;30873;53.908;27.576;2022-12-07T00:24:42;32.2;27;16.8
45112;PMS5003;30873;53.908;27.576;2022-12-07T00:29:44;32.8;25.9;15.3
45112;PMS5003;30873;53.908;27.576;2022-12-07T00:34:20;34.6;28.2;17.2
45112;PMS5003;30873;53.908;27.576;2022-12-07T00:39:18;31.8;27.1;16.9
45112;PMS5003;30873;53.908;27.576;2022-12-07T00:44:20;29.4;24.8;15.4
45112;PMS5003;30873;53.908;27.576;2022-12-07T00:49:56;31.1;27.6;16.3
45112;PMS5003;30873;53.908;27.576;2022-12-07T00:54:28;31.5;26.5;15.7
45112;PMS5003;30873;53.908;27.576;2022-12-07T00:59:13;32.4;26.7;15.5
45112;PMS5003;30873;53.908;27.576;2022-12-07T01:04:32;30.6;25.1;15.3
45112;PMS5003;30873;53.908;27.576;2022-12-07T01:09:54;30.4;27;15.6
45112;PMS5003;30873;53.908;27.576;2022-12-07T01:14:34;33.6;27.4;15.6
45112;PMS5003;30873;53.908;27.576;2022-12-07T01:19:46;31.7;26.9;16.1
45112;PMS5003;30873;53.908;27.576;2022-12-07T01:24:12;30.9;26.3;15.8
45112;PMS5003;30873;53.908;27.576;2022-12-07T01:29:12;29.6;25.5;15
45112;PMS5003;30873;53.908;27.576;2022-12-07T01:34:34;27.4;22.9;14.3
45112;PMS5003;30873;53.908;27.576;2022-12-07T01:39:44;30.6;24.8;15.3
45112;PMS5003;30873;53.908;27.576;2022-12-07T01:45:53;32.8;26.5;15.4
45112;PMS5003;30873;53.908;27.576;2022-12-07T01:49:48;25.4;21.9;13.6
45112;PMS5003;30873;53.908;27.576;2022-12-07T01:54:34;28.6;23.6;14.6
45112;PMS5003;30873;53.908;27.576;2022-12-07T02:00:03;26.2;22;13.6
45112;PMS5003;30873;53.908;27.576;2022-12-07T02:05:03;30.8;25.6;14.7
45112;PMS5003;30873;53.908;27.576;2022-12-07T02:09:48;28.1;22.9;14.3
45112;PMS5003;30873;53.908;27.576;2022-12-07T02:14:34;32.5;26.6;15.6
45112;PMS5003;30873;53.908;27.576;2022-12-07T02:19:39;33.1;26.8;15.7
45112;PMS5003;30873;53.908;27.576;2022-12-07T02:24:59;32;27;16.2
45112;PMS5003;30873;53.908;27.576;2022-12-07T02:29:33;33;27.3;15.4
45112;PMS5003;30873;53.908;27.576;2022-12-07T02:34:47;33;28.4;15.9
45112;PMS5003;30873;53.908;27.576;2022-12-07T02:39:24;32.9;28.3;17.2
45112;PMS5003;30873;53.908;27.576;2022-12-07T02:44:23;30.6;26.5;16.1
45112;PMS5003;30873;53.908;27.576;2022-12-07T02:49:34;31.5;25.7;16.2
45112;PMS5003;30873;53.908;27.576;2022-12-07T02:54:44;34;27.1;16.7
45112;PMS5003;30873;53.908;27.576;2022-12-07T02:59:50;31.9;27.6;15.5
45112;PMS5003;30873;53.908;27.576;2022-12-07T03:04:27;31;26;16.1
45112;PMS5003;30873;53.908;27.576;2022-12-07T03:09:13;31.3;26.3;15.4
45112;PMS5003;30873;53.908;27.576;2022-12-07T03:15:00;29.7;25.2;16.3
45112;PMS5003;30873;53.908;27.576;2022-12-07T03:19:34;30.9;25.7;15.8
45112;PMS5003;30873;53.908;27.576;2022-12-07T03:24:13;31.4;25.5;14.7
45112;PMS5003;30873;53.908;27.576;2022-12-07T03:29:49;30.6;26.6;16.7
45112;PMS5003;30873;53.908;27.576;2022-12-07T03:34:23;32.8;28.6;17.5
45112;PMS5003;30873;53.908;27.576;2022-12-07T03:39:59;31.8;27.7;16.1
45112;PMS5003;30873;53.908;27.576;2022-12-07T03:44:34;31.5;26.8;16.2
45112;PMS5003;30873;53.908;27.576;2022-12-07T03:49:48;32.9;27.9;16.9
45112;PMS5003;30873;53.908;27.576;2022-12-07T03:54:13;31.5;24.9;15.4
45112;PMS5003;30873;53.908;27.576;2022-12-07T03:59:48;30.6;25.8;15.4
45112;PMS5003;30873;53.908;27.576;2022-12-07T04:04:48;29.9;25.6;15.4
45112;PMS5003;30873;53.908;27.576;2022-12-07T04:09:48;29.1;24.2;15.4
45112;PMS5003;30873;53.908;27.576;2022-12-07T04:14:32;32.1;28.2;17.1
45112;PMS5003;30873;53.908;27.576;2022-12-07T04:20:00;33.2;27.4;17.2
45112;PMS5003;30873;53.908;27.576;2022-12-07T04:24:24;32.3;27.8;15.8
45112;PMS5003;30873;53.908;27.576;2022-12-07T04:29:46;31.9;27.5;16.6
45112;PMS5003;30873;53.908;27.576;2022-12-07T04:34:32;33.4;29.1;18.1
45112;PMS5003;30873;53.908;27.576;2022-12-07T04:39:42;32;27;17.1
45112;PMS5003;30873;53.908;27.576;2022-12-07T04:44:32;32.8;26.6;16.9
45112;PMS5003;30873;53.908;27.576;2022-12-07T04:49:13;31.6;27.5;17.1
45112;PMS5003;30873;53.908;27.576;2022-12-07T04:54:34;30.2;27;17.4
45112;PMS5003;30873;53.908;27.576;2022-12-07T05:00:00;31.7;26.2;16.8
45112;PMS5003;30873;53.908;27.576;2022-12-07T05:05:02;33.9;29;17.7
45112;PMS5003;30873;53.908;27.576;2022-12-07T05:10:00;30.3;27.3;17.6
45112;PMS5003;30873;53.908;27.576;2022-12-07T05:14:13;32.4;28;17.1
45112;PMS5003;30873;53.908;27.576;2022-12-07T05:19:46;28.5;24.4;15.7
45112;PMS5003;30873;53.908;27.576;2022-12-07T05:24:46;30.2;25.3;16
45112;PMS5003;30873;53.908;27.576;2022-12-07T05:29:34;30.3;26.4;17.4
45112;PMS5003;30873;53.908;27.576;2022-12-07T05:34:58;34.4;29.4;17.7
45112;PMS5003;30873;53.908;27.576;2022-12-07T05:39:22;31;25.9;16.3
45112;PMS5003;30873;53.908;27.576;2022-12-07T05:44:46;30.7;25.9;16.1
45112;PMS5003;30873;53.908;27.576;2022-12-07T05:49:34;30.1;26;16
45112;PMS5003;30873;53.908;27.576;2022-12-07T05:54:58;30.9;26.7;16.7
45112;PMS5003;30873;53.908;27.576;2022-12-07T05:59:32;30.7;25.5;16.7
45112;PMS5003;30873;53.908;27.576;2022-12-07T06:04:31;32;26.8;16.8
45112;PMS5003;30873;53.908;27.576;2022-12-07T06:09:32;31.3;25.8;15
45112;PMS5003;30873;53.908;27.576;2022-12-07T06:14:52;31.4;25;16.3
45112;PMS5003;30873;53.908;27.576;2022-12-07T06:20:02;28.5;25.2;16.5
45112;PMS5003;30873;53.908;27.576;2022-12-07T06:25:02;31;26.8;17
45112;PMS5003;30873;53.908;27.576;2022-12-07T06:29:13;28.7;25.4;15.7
45112;PMS5003;30873;53.908;27.576;2022-12-07T06:34:46;29.7;25.3;16.3
45112;PMS5003;30873;53.908;27.576;2022-12-07T06:39:48;32.2;28;17
45112;PMS5003;30873;53.908;27.576;2022-12-07T06:44:32;33.4;28.2;17
45112;PMS5003;30873;53.908;27.576;2022-12-07T06:49:56;33.9;29.4;18.7
45112;PMS5003;30873;53.908;27.576;2022-12-07T06:54:32;34.2;28.8;19
45112;PMS5003;30873;53.908;27.576;2022-12-07T06:59:44;32.1;26.8;16.3
45112;PMS5003;30873;53.908;27.576;2022-12-07T07:04:22;34;28;18.1
45112;PMS5003;30873;53.908;27.576;2022-12-07T07:09:56;34;27.7;17.1
45112;PMS5003;30873;53.908;27.576;2022-12-07T07:14:32;34.6;29.7;18.1
45112;PMS5003;30873;53.908;27.576;2022-12-07T07:19:12;37.9;30.1;18.7
45112;PMS5003;30873;53.908;27.576;2022-12-07T07:24:22;37.4;31.5;18.8
45112;PMS5003;30873;53.908;27.576;2022-12-07T07:29:46;35.2;30.7;19.6
45112;PMS5003;30873;53.908;27.576;2022-12-07T07:34:58;35.2;30.4;19.6
45112;PMS5003;30873;53.908;27.576;2022-12-07T07:39:56;38.4;32.6;20.2
45112;PMS5003;30873;53.908;27.576;2022-12-07T07:44:22;38.5;32.7;19.8
45112;PMS5003;30873;53.908;27.576;2022-12-07T07:49:46;37.6;31.7;19.6
45112;PMS5003;30873;53.908;27.576;2022-12-07T07:54:46;31.9;26.4;16.8
45112;PMS5003;30873;53.908;27.576;2022-12-07T07:59:34;38.3;31.4;21.3
45112;PMS5003;30873;53.908;27.576;2022-12-07T08:05:00;33;27.5;18.2
45112;PMS5003;30873;53.908;27.576;2022-12-07T08:09:32;33.3;29.4;18.3
45112;PMS5003;30873;53.908;27.576;2022-12-07T08:14:42;32.8;26.4;17.4
45112;PMS5003;30873;53.908;27.576;2022-12-07T08:19:32;28.5;25.3;16.7
45112;PMS5003;30873;53.908;27.576;2022-12-07T08:25:00;33.9;28.8;18.2
45112;PMS5003;30873;53.908;27.576;2022-12-07T08:29:32;30.1;26.2;17.5
45112;PMS5003;30873;53.908;27.576;2022-12-07T08:34:22;30;25.4;16.8
45112;PMS5003;30873;53.908;27.576;2022-12-07T08:39:34;29.3;25.2;15.7
45112;PMS5003;30873;53.908;27.576;2022-12-07T08:44:58;28.5;25;15.6
45112;PMS5003;30873;53.908;27.576;2022-12-07T08:50:00;29.5;24.7;16.3
45112;PMS5003;30873;53.908;27.576;2022-12-07T08:55:00;28.6;24.7;15.9
45112;PMS5003;30873;53.908;27.576;2022-12-07T08:59:24;31;26.7;16.8
45112;PMS5003;30873;53.908;27.576;2022-12-07T09:04:46;29.1;25.8;15.9
45112;PMS5003;30873;53.908;27.576;2022-12-07T09:09:46;32;27.4;17.9
45112;PMS5003;30873;53.908;27.576;2022-12-07T09:14:32;27.8;24;15.6
45112;PMS5003;30873;53.908;27.576;2022-12-07T09:19:56;30.1;24.4;15.8
45112;PMS5003;30873;53.908;27.576;2022-12-07T09:24:12;27.6;23.9;15.7
45112;PMS5003;30873;53.908;27.576;2022-12-07T09:29:48;28.7;25.8;15.7
45112;PMS5003;30873;53.908;27.576;2022-12-07T09:34:32;29.7;24.7;15.4
45112;PMS5003;30873;53.908;27.576;2022-12-07T09:39:44;29.6;25.6;16.5
45112;PMS5003;30873;53.908;27.576;2022-12-07T09:44:33;32.6;28.8;17.7
45112;PMS5003;30873;53.908;27.576;2022-12-07T09:49:23;34.3;26.9;17.4
45112;PMS5003;30873;53.908;27.576;2022-12-07T09:54:35;30.3;25.8;16.3
45112;PMS5003;30873;53.908;27.576;2022-12-07T10:00:00;32.1;27.5;17.1
45112;PMS5003;30873;53.908;27.576;2022-12-07T10:05:00;32.5;26.8;16.8
45112;PMS5003;30873;53.908;27.576;2022-12-07T10:09:58;34.6;28.8;18.4
45112;PMS5003;30873;53.908;27.576;2022-12-07T10:14:13;33;28.7;17.8
45112;PMS5003;30873;53.908;27.576;2022-12-07T10:19:46;36;30.3;20.6
45112;PMS5003;30873;53.908;27.576;2022-12-07T10:24:46;33.1;29.1;18.6
45112;PMS5003;30873;53.908;27.576;2022-12-07T10:29:36;34.8;29.9;19.3
45112;PMS5003;30873;53.908;27.576;2022-12-07T10:35:34;30.6;26;17.1
45112;PMS5003;30873;53.908;27.576;2022-12-07T10:39:40;32.4;28.3;19
45112;PMS5003;30873;53.908;27.576;2022-12-07T10:44:44;37.7;33.6;23.1
45112;PMS5003;30873;53.908;27.576;2022-12-07T10:50:52;36.5;32.8;22.4
45112;PMS5003;30873;53.908;27.576;2022-12-07T10:55:03;32.9;27.4;18.6
45112;PMS5003;30873;53.908;27.576;2022-12-07T10:59:18;35.3;30.6;20
45112;PMS5003;30873;53.908;27.576;2022-12-07T11:04:24;33.3;29.9;19.1
45112;PMS5003;30873;53.908;27.576;2022-12-07T11:10:05;30.1;25.8;17.1
45112;PMS5003;30873;53.908;27.576;2022-12-07T11:14:58;32.1;28;17.9
45112;PMS5003;30873;53.908;27.576;2022-12-07T11:20:01;25.9;22;14.3
45112;PMS5003;30873;53.908;27.576;2022-12-07T11:25:00;32.3;27.8;17.8
45112;PMS5003;30873;53.908;27.576;2022-12-07T11:29:17;26.4;23.8;16.1
45112;PMS5003;30873;53.908;27.576;2022-12-07T11:34:47;31;26.2;18.3
45112;PMS5003;30873;53.908;27.576;2022-12-07T11:39:47;31.3;26.2;17.9
45112;PMS5003;30873;53.908;27.576;2022-12-07T11:44:33;36;31.6;21.4
45112;PMS5003;30873;53.908;27.576;2022-12-07T11:50:01;29.9;25.8;17.4
45112;PMS5003;30873;53.908;27.576;2022-12-07T11:54:23;34.2;29.5;20.5
45112;PMS5003;30873;53.908;27.576;2022-12-07T11:59:47;35.9;30.8;20.7
45112;PMS5003;30873;53.908;27.576;2022-12-07T12:04:24;33;29.7;21.6
45112;PMS5003;30873;53.908;27.576;2022-12-07T12:09:58;37.9;31.5;20.8
45112;PMS5003;30873;53.908;27.576;2022-12-07T12:14:36;38.5;34.1;22.4
45112;PMS5003;30873;53.908;27.576;2022-12-07T12:19:17;39.2;33.6;22.7
45112;PMS5003;30873;53.908;27.576;2022-12-07T12:24:13;34.8;30.3;21.6
45112;PMS5003;30873;53.908;27.576;2022-12-07T12:29:57;30.2;27.4;18
45112;PMS5003;30873;53.908;27.576;2022-12-07T12:35:00;35;30.4;20.4
45112;PMS5003;30873;53.908;27.576;2022-12-07T12:41:03;27.3;24.3;15.1
45112;PMS5003;30873;53.908;27.576;2022-12-07T12:44:41;34.5;27.9;18.5
45112;PMS5003;30873;53.908;27.576;2022-12-07T12:50:17;34.8;30.2;20.1
45112;PMS5003;30873;53.908;27.576;2022-12-07T12:54:57;34.3;29.8;19.9
45112;PMS5003;30873;53.908;27.576;2022-12-07T12:59:34;31.2;26.9;17.7
45112;PMS5003;30873;53.908;27.576;2022-12-07T13:05:02;31.7;27.3;18.9
45112;PMS5003;30873;53.908;27.576;2022-12-07T13:09:17;34.9;31.4;21.3
45112;PMS5003;30873;53.908;27.576;2022-12-07T13:14:58;34.3;30;20.2
45112;PMS5003;30873;53.908;27.576;2022-12-07T13:20:04;27;22.5;15.5
45112;PMS5003;30873;53.908;27.576;2022-12-07T13:24:46;27.2;23.8;16.8
45112;PMS5003;30873;53.908;27.576;2022-12-07T13:29:36;34.2;29.9;19.7
45112;PMS5003;30873;53.908;27.576;2022-12-07T13:34:29;33.8;30;19.3
45112;PMS5003;30873;53.908;27.576;2022-12-07T13:39:45;32.8;28.2;18.2
45112;PMS5003;30873;53.908;27.576;2022-12-07T13:44:49;31.6;27.4;18.2
45112;PMS5003;30873;53.908;27.576;2022-12-07T13:49:38;34;28.9;20.2
45112;PMS5003;30873;53.908;27.576;2022-12-07T13:55:01;33.3;28.5;20.8
45112;PMS5003;30873;53.908;27.576;2022-12-07T13:59:23;26.3;22.9;15.2
45112;PMS5003;30873;53.908;27.576;2022-12-07T14:04:44;27.7;23.6;15.8
45112;PMS5003;30873;53.908;27.576;2022-12-07T14:09:35;29;25.4;16.9
45112;PMS5003;30873;53.908;27.576;2022-12-07T14:14:46;29.2;24.9;16.7
45112;PMS5003;30873;53.908;27.576;2022-12-07T14:19:52;29.2;24.3;17.2
45112;PMS5003;30873;53.908;27.576;2022-12-07T14:24:24;27.6;23.2;14.7
45112;PMS5003;30873;53.908;27.576;2022-12-07T14:29:59;25.8;23.4;15.9
45112;PMS5003;30873;53.908;27.576;2022-12-07T14:34:32;31.3;26.2;17.8
45112;PMS5003;30873;53.908;27.576;2022-12-07T14:39:14;26.3;23.4;15.3
45112;PMS5003;30873;53.908;27.576;2022-12-07T14:44:32;26.9;23;14.8
45112;PMS5003;30873;53.908;27.576;2022-12-07T14:49:13;25.4;22;14.6
45112;PMS5003;30873;53.908;27.576;2022-12-07T14:54:32;23.8;20.7;13.2
45112;PMS5003;30873;53.908;27.576;2022-12-07T14:59:46;26.9;22.7;14
45112;PMS5003;30873;53.908;27.576;2022-12-07T15:04:36;23.9;20.6;13.5
45112;PMS5003;30873;53.908;27.576;2022-12-07T15:10:00;26.3;22.2;15.4
45112;PMS5003;30873;53.908;27.576;2022-12-07T15:14:22;25.9;22.9;13.9
45112;PMS5003;30873;53.908;27.576;2022-12-07T15:19:47;25.7;22.4;15.9
45112;PMS5003;30873;53.908;27.576;2022-12-07T15:24:58;23.7;21.3;13.2
45112;PMS5003;30873;53.908;27.576;2022-12-07T15:29:49;23.2;21;13.3
45112;PMS5003;30873;53.908;27.576;2022-12-07T15:35:01;21.6;18.2;12.1
45112;PMS5003;30873;53.908;27.576;2022-12-07T15:39:32;24.6;22.1;13.2
45112;PMS5003;30873;53.908;27.576;2022-12-07T15:44:58;23.7;20.6;13.2
45112;PMS5003;30873;53.908;27.576;2022-12-07T15:49:13;25.2;21.8;13.3
45112;PMS5003;30873;53.908;27.576;2022-12-07T15:54:49;26.9;22.9;14.3
45112;PMS5003;30873;53.908;27.576;2022-12-07T15:59:47;22.9;20.5;12.6
45112;PMS5003;30873;53.908;27.576;2022-12-07T16:04:13;23.4;20.1;12.5
45112;PMS5003;30873;53.908;27.576;2022-12-07T16:09:35;21.2;17.9;11.3
45112;PMS5003;30873;53.908;27.576;2022-12-07T16:14:45;21.9;18;11.1
45112;PMS5003;30873;53.908;27.576;2022-12-07T16:19:13;21;18.7;12.4
45112;PMS5003;30873;53.908;27.576;2022-12-07T16:25:01;22.7;19.5;12.9
45112;PMS5003;30873;53.908;27.576;2022-12-07T16:29:13;22.1;20;12.3
45112;PMS5003;30873;53.908;27.576;2022-12-07T16:34:47;22.5;19.7;13
45112;PMS5003;30873;53.908;27.576;2022-12-07T16:39:15;23.4;19.4;12.3
45112;PMS5003;30873;53.908;27.576;2022-12-07T16:44:43;22;19.5;12.2
45112;PMS5003;30873;53.908;27.576;2022-12-07T16:50:01;20.8;17.8;11.5
45112;PMS5003;30873;53.908;27.576;2022-12-07T16:54:13;18.3;15.7;9.7
45112;PMS5003;30873;53.908;27.576;2022-12-07T17:00:01;20.7;18.2;11.4
45112;PMS5003;30873;53.908;27.576;2022-12-07T17:04:23;18.7;15.9;10.6
45112;PMS5003;30873;53.908;27.576;2022-12-07T17:09:45;18.3;15.5;9.9
45112;PMS5003;30873;53.908;27.576;2022-12-07T17:14:13;19.8;17.2;11
45112;PMS5003;30873;53.908;27.576;2022-12-07T17:19:47;18.3;16.8;11.3
45112;PMS5003;30873;53.908;27.576;2022-12-07T17:24:33;21.5;18.9;12
45112;PMS5003;30873;53.908;27.576;2022-12-07T17:29:47;21.2;18.6;11.9
45112;PMS5003;30873;53.908;27.576;2022-12-07T17:34:33;19.5;17;10.8
45112;PMS5003;30873;53.908;27.576;2022-12-07T17:40:01;20.1;17.8;11
45112;PMS5003;30873;53.908;27.576;2022-12-07T17:44:23;19.9;18;11.3
45112;PMS5003;30873;53.908;27.576;2022-12-07T17:49:59;20.8;19.3;11.9
45112;PMS5003;30873;53.908;27.576;2022-12-07T17:54:35;20.1;17.5;11.3
45112;PMS5003;30873;53.908;27.576;2022-12-07T17:59:45;23.8;20.9;12.9
45112;PMS5003;30873;53.908;27.576;2022-12-07T18:04:47;24.1;21;13.2
45112;PMS5003;30873;53.908;27.576;2022-12-07T18:09:37;24.4;21.4;13.5
45112;PMS5003;30873;53.908;27.576;2022-12-07T18:14:58;23.4;21.5;13.5
45112;PMS5003;30873;53.908;27.576;2022-12-07T18:19:59;25;22.3;14.1
45112;PMS5003;30873;53.908;27.576;2022-12-07T18:24:39;24.6;20.9;13.4
45112;PMS5003;30873;53.908;27.576;2022-12-07T18:29:35;24.1;22;14.1
45112;PMS5003;30873;53.908;27.576;2022-12-07T18:34:14;27.6;23.6;14.2
45112;PMS5003;30873;53.908;27.576;2022-12-07T18:39:47;24.6;21.8;13.4
45112;PMS5003;30873;53.908;27.576;2022-12-07T18:44:59;25.6;22.5;13.8
45112;PMS5003;30873;53.908;27.576;2022-12-07T18:49:33;27.4;23.6;14.8
45112;PMS5003;30873;53.908;27.576;2022-12-07T18:54:59;27.2;23.7;14.6
45112;PMS5003;30873;53.908;27.576;2022-12-07T18:59:37;25.3;21.6;13.6
45112;PMS5003;30873;53.908;27.576;2022-12-07T19:05:01;24.6;21.8;13.9
45112;PMS5003;30873;53.908;27.576;2022-12-07T19:09:35;23.9;21.3;13.3
45112;PMS5003;30873;53.908;27.576;2022-12-07T19:14:45;23.2;20.3;12.8
45112;PMS5003;30873;53.908;27.576;2022-12-07T19:19:43;22;19.2;12.4
45112;PMS5003;30873;53.908;27.576;2022-12-07T19:24:23;21.3;18.6;12.7
45112;PMS5003;30873;53.908;27.576;2022-12-07T19:30:01;21.5;18.3;11.9
45112;PMS5003;30873;53.908;27.576;2022-12-07T19:35:01;20;17.3;11.6
45112;PMS5003;30873;53.908;27.576;2022-12-07T19:39:47;16.2;13.5;8.5
45112;PMS5003;30873;53.908;27.576;2022-12-07T19:44:35;15.2;13.1;7.8
45112;PMS5003;30873;53.908;27.576;2022-12-07T19:49:13;14.3;12.3;7
45112;PMS5003;30873;53.908;27.576;2022-12-07T19:54:33;14;11.6;7.7
45112;PMS5003;30873;53.908;27.576;2022-12-07T19:59:59;15.2;12.1;7
45112;PMS5003;30873;53.908;27.576;2022-12-07T20:04:35;14;11.5;7.2
45112;PMS5003;30873;53.908;27.576;2022-12-07T20:10:01;15.1;12.8;8.1
45112;PMS5003;30873;53.908;27.576;2022-12-07T20:14:33;15.4;13.3;8.8
45112;PMS5003;30873;53.908;27.576;2022-12-07T20:19:59;15.1;14.6;8.9
45112;PMS5003;30873;53.908;27.576;2022-12-07T20:24:23;19.6;15.9;9.9
45112;PMS5003;30873;53.908;27.576;2022-12-07T20:29:45;19.8;16.6;10.4
45112;PMS5003;30873;53.908;27.576;2022-12-07T20:34:45;22.1;18;11.5
45112;PMS5003;30873;53.908;27.576;2022-12-07T20:39:33;21.8;20.4;11.7
45112;PMS5003;30873;53.908;27.576;2022-12-07T20:44:59;24.3;19.9;11.9
45112;PMS5003;30873;53.908;27.576;2022-12-07T20:49:59;29.5;23.7;13.2
45112;PMS5003;30873;53.908;27.576;2022-12-07T20:54:45;27.4;21.3;13.7
45112;PMS5003;30873;53.908;27.576;2022-12-07T20:59:33;25.6;21.4;11.4
45112;PMS5003;30873;53.908;27.576;2022-12-07T21:04:23;26.6;22.2;12.9
45112;PMS5003;30873;53.908;27.576;2022-12-07T21:09:47;28.4;22.4;13.2
45112;PMS5003;30873;53.908;27.576;2022-12-07T21:15:01;28;22.8;13.2
45112;PMS5003;30873;53.908;27.576;2022-12-07T21:19:37;29;24;14
45112;PMS5003;30873;53.908;27.576;2022-12-07T21:25:01;27.1;23.4;12.9
45112;PMS5003;30873;53.908;27.576;2022-12-07T21:29:13;26.2;21.8;13.3
45112;PMS5003;30873;53.908;27.576;2022-12-07T21:34:59;24.8;21.9;13.2
45112;PMS5003;30873;53.908;27.576;2022-12-07T21:39:35;26.9;22.8;13.3
45112;PMS5003;30873;53.908;27.576;2022-12-07T21:44:43;23.9;19.4;11.2
45112;PMS5003;30873;53.908;27.576;2022-12-07T21:49:43;23.8;19.8;10.9
45112;PMS5003;30873;53.908;27.576;2022-12-07T21:54:35;24.4;19.6;11.1
45112;PMS5003;30873;53.908;27.576;2022-12-07T21:59:14;24;18;10.7
45112;PMS5003;30873;53.908;27.576;2022-12-07T22:04:57;22.8;18.8;10.7
45112;PMS5003;30873;53.908;27.576;2022-12-07T22:09:55;22.4;16.9;9.8
45112;PMS5003;30873;53.908;27.576;2022-12-07T22:14:27;21.8;18.6;10.2
45112;PMS5003;30873;53.908;27.576;2022-12-07T22:19:13;25.1;19.3;11.2
45112;PMS5003;30873;53.908;27.576;2022-12-07T22:24:13;23.4;19.7;11.8
45112;PMS5003;30873;53.908;27.576;2022-12-07T22:29:55;24;20.8;11.9
45112;PMS5003;30873;53.908;27.576;2022-12-07T22:34:19;28;23.6;13.2
45112;PMS5003;30873;53.908;27.576;2022-12-07T22:39:45;27.9;23.8;14
45112;PMS5003;30873;53.908;27.576;2022-12-07T22:44:13;27.4;22.8;12.9
45112;PMS5003;30873;53.908;27.576;2022-12-07T22:49:45;26.4;22.3;12.9
45112;PMS5003;30873;53.908;27.576;2022-12-07T22:54:31;21.1;18;11.6
45112;PMS5003;30873;53.908;27.576;2022-12-07T22:59:43;24.5;19.5;11.1
45112;PMS5003;30873;53.908;27.576;2022-12-07T23:04:41;20.5;18.3;11.1
45112;PMS5003;30873;53.908;27.576;2022-12-07T23:09:29;23.1;20.5;11.5
45112;PMS5003;30873;53.908;27.576;2022-12-07T23:14:13;20.2;17;10.3
45112;PMS5003;30873;53.908;27.576;2022-12-07T23:19:55;20.6;17.5;10.5
45112;PMS5003;30873;53.908;27.576;2022-12-07T23:24:53;19.5;15.9;9.3
45112;PMS5003;30873;53.908;27.576;2022-12-07T23:29:29;17.6;14.9;8.6
45112;PMS5003;30873;53.908;27.576;2022-12-07T23:34:21;17;14.8;8.3
45112;PMS5003;30873;53.908;27.576;2022-12-07T23:39:21;16.2;14.1;8.5
45112;PMS5003;30873;53.908;27.576;2022-12-07T23:44:55;14.8;12.6;7.6
45112;PMS5003;30873;53.908;27.576;2022-12-07T23:49:29;16.3;12.9;7
45112;PMS5003;30873;53.908;27.576;2022-12-07T23:54:43;13.2;10.8;6.8
45112;PMS5003;30873;53.908;27.576;2022-12-07T23:59:13;15.3;13.7;7.5
